Terminal Aerodrome Forecast
Issued by NWS Charleston, WV

Current Version | Previous Version | Text Only | Print | Product List | Glossary Off
Versions: 1 2 3 4 5 6 7 8 9 10 11 12 13 14 15 16 17 18 19 20 21 22 23 24 25 26 27 28 29

000
FTUS41 KRLX 222050 AAA
TAFEKN
TAF AMD
KEKN 222050Z 2221/2318 13007KT P6SM BKN070 OVC090
     FM222300 14008KT 5SM -SHRA BR BKN008 OVC015
     FM230800 14007G16KT 2SM SHRA BR OVC008
     FM231400 11015G22KT 4SM -SHRA BR OVC004=

USA.gov is the U.S. government's official web portal to all federal, state and local government web resources and services.